sensor_id;sensor_type;location;lat;lon;timestamp;P1;durP1;ratioP1;P2;durP2;ratioP2
21337;SDS011;72379;50.880;4.350;2024-03-23T00:55:14;9.43;;;3.30;;
21337;SDS011;72379;50.880;4.350;2024-03-23T00:57:40;10.13;;;3.43;;
21337;SDS011;72379;50.880;4.350;2024-03-23T01:00:06;14.83;;;3.47;;
21337;SDS011;72379;50.880;4.350;2024-03-23T01:02:35;11.03;;;3.80;;
21337;SDS011;72379;50.880;4.350;2024-03-23T01:05:01;10.70;;;3.60;;
21337;SDS011;72379;50.880;4.350;2024-03-23T01:07:26;20.70;;;3.80;;
21337;SDS011;72379;50.880;4.350;2024-03-23T01:09:52;15.03;;;3.77;;
21337;SDS011;72379;50.880;4.350;2024-03-23T01:12:18;12.50;;;3.27;;
21337;SDS011;72379;50.880;4.350;2024-03-23T01:14:44;12.17;;;3.73;;
21337;SDS011;72379;50.880;4.350;2024-03-23T01:17:10;10.27;;;4.03;;
21337;SDS011;72379;50.880;4.350;2024-03-23T01:19:36;13.03;;;4.30;;
21337;SDS011;72379;50.880;4.350;2024-03-23T01:22:05;11.27;;;3.77;;
21337;SDS011;72379;50.880;4.350;2024-03-23T01:24:31;16.83;;;4.87;;
21337;SDS011;72379;50.880;4.350;2024-03-23T01:26:56;13.33;;;4.00;;
21337;SDS011;72379;50.880;4.350;2024-03-23T01:29:22;10.90;;;3.93;;
21337;SDS011;72379;50.880;4.350;2024-03-23T01:31:48;11.20;;;3.93;;
21337;SDS011;72379;50.880;4.350;2024-03-23T01:34:14;12.03;;;4.60;;
21337;SDS011;72379;50.880;4.350;2024-03-23T01:36:40;20.00;;;5.10;;
21337;SDS011;72379;50.880;4.350;2024-03-23T01:39:06;14.80;;;4.83;;
21337;SDS011;72379;50.880;4.350;2024-03-23T01:41:34;17.93;;;4.73;;
21337;SDS011;72379;50.880;4.350;2024-03-23T01:44:04;13.67;;;4.37;;
21337;SDS011;72379;50.880;4.350;2024-03-23T01:46:39;15.13;;;4.70;;
21337;SDS011;72379;50.880;4.350;2024-03-23T01:49:06;15.50;;;4.80;;
21337;SDS011;72379;50.880;4.350;2024-03-23T01:51:33;8.10;;;4.53;;
21337;SDS011;72379;50.880;4.350;2024-03-23T01:53:59;17.03;;;5.90;;
21337;SDS011;72379;50.880;4.350;2024-03-23T01:56:37;16.80;;;5.83;;
21337;SDS011;72379;50.880;4.350;2024-03-23T01:59:03;16.43;;;5.90;;
21337;SDS011;72379;50.880;4.350;2024-03-23T02:01:30;18.00;;;5.97;;
21337;SDS011;72379;50.880;4.350;2024-03-23T02:03:56;19.03;;;6.10;;
21337;SDS011;72379;50.880;4.350;2024-03-23T02:06:22;16.63;;;6.50;;
21337;SDS011;72379;50.880;4.350;2024-03-23T02:08:49;19.50;;;6.23;;
21337;SDS011;72379;50.880;4.350;2024-03-23T02:11:15;18.60;;;6.90;;
21337;SDS011;72379;50.880;4.350;2024-03-23T02:13:41;19.80;;;6.63;;
21337;SDS011;72379;50.880;4.350;2024-03-23T02:16:07;18.37;;;6.73;;
21337;SDS011;72379;50.880;4.350;2024-03-23T02:18:33;21.07;;;7.20;;
21337;SDS011;72379;50.880;4.350;2024-03-23T02:20:59;23.83;;;7.07;;
21337;SDS011;72379;50.880;4.350;2024-03-23T02:23:25;16.50;;;6.70;;
21337;SDS011;72379;50.880;4.350;2024-03-23T02:25:51;24.03;;;7.73;;
21337;SDS011;72379;50.880;4.350;2024-03-23T02:28:18;23.70;;;8.00;;
21337;SDS011;72379;50.880;4.350;2024-03-23T02:30:44;21.53;;;7.83;;
21337;SDS011;72379;50.880;4.350;2024-03-23T02:33:10;20.97;;;6.87;;
21337;SDS011;72379;50.880;4.350;2024-03-23T02:35:36;19.57;;;8.33;;
21337;SDS011;72379;50.880;4.350;2024-03-23T02:38:02;21.60;;;7.20;;
21337;SDS011;72379;50.880;4.350;2024-03-23T02:40:28;17.60;;;6.50;;
21337;SDS011;72379;50.880;4.350;2024-03-23T02:42:54;22.43;;;8.20;;
21337;SDS011;72379;50.880;4.350;2024-03-23T02:45:21;17.20;;;7.40;;
21337;SDS011;72379;50.880;4.350;2024-03-23T02:47:47;27.83;;;8.47;;
21337;SDS011;72379;50.880;4.350;2024-03-23T02:50:17;23.20;;;7.60;;
21337;SDS011;72379;50.880;4.350;2024-03-23T02:52:43;20.40;;;7.33;;
21337;SDS011;72379;50.880;4.350;2024-03-23T02:55:09;21.80;;;7.33;;
21337;SDS011;72379;50.880;4.350;2024-03-23T02:57:35;27.30;;;8.67;;
21337;SDS011;72379;50.880;4.350;2024-03-23T03:00:01;25.70;;;8.63;;
21337;SDS011;72379;50.880;4.350;2024-03-23T03:02:27;24.97;;;8.93;;
21337;SDS011;72379;50.880;4.350;2024-03-23T03:04:53;20.50;;;7.70;;
21337;SDS011;72379;50.880;4.350;2024-03-23T03:07:19;25.37;;;7.90;;
21337;SDS011;72379;50.880;4.350;2024-03-23T03:09:45;20.57;;;8.20;;
21337;SDS011;72379;50.880;4.350;2024-03-23T03:12:11;23.57;;;7.97;;
21337;SDS011;72379;50.880;4.350;2024-03-23T03:14:37;21.80;;;8.03;;
21337;SDS011;72379;50.880;4.350;2024-03-23T03:17:03;23.23;;;7.67;;
21337;SDS011;72379;50.880;4.350;2024-03-23T03:19:29;24.20;;;8.80;;
21337;SDS011;72379;50.880;4.350;2024-03-23T03:21:55;27.00;;;8.87;;
21337;SDS011;72379;50.880;4.350;2024-03-23T03:24:21;21.37;;;8.57;;
21337;SDS011;72379;50.880;4.350;2024-03-23T03:26:47;24.67;;;8.33;;
21337;SDS011;72379;50.880;4.350;2024-03-23T03:29:15;18.40;;;7.33;;
21337;SDS011;72379;50.880;4.350;2024-03-23T03:31:41;25.30;;;8.57;;
21337;SDS011;72379;50.880;4.350;2024-03-23T03:34:07;20.53;;;7.93;;
21337;SDS011;72379;50.880;4.350;2024-03-23T03:36:33;22.30;;;8.00;;
21337;SDS011;72379;50.880;4.350;2024-03-23T03:38:59;23.87;;;8.60;;
21337;SDS011;72379;50.880;4.350;2024-03-23T03:41:24;26.87;;;8.70;;
21337;SDS011;72379;50.880;4.350;2024-03-23T03:43:50;22.37;;;8.53;;
21337;SDS011;72379;50.880;4.350;2024-03-23T03:46:22;28.93;;;9.40;;
21337;SDS011;72379;50.880;4.350;2024-03-23T03:48:48;25.87;;;9.00;;
21337;SDS011;72379;50.880;4.350;2024-03-23T03:51:20;31.03;;;9.13;;
21337;SDS011;72379;50.880;4.350;2024-03-23T03:53:46;23.43;;;9.53;;
21337;SDS011;72379;50.880;4.350;2024-03-23T03:56:12;37.63;;;11.23;;
21337;SDS011;72379;50.880;4.350;2024-03-23T03:58:38;29.83;;;10.43;;
21337;SDS011;72379;50.880;4.350;2024-03-23T04:01:05;17.07;;;9.53;;
21337;SDS011;72379;50.880;4.350;2024-03-23T04:03:30;29.97;;;12.53;;
21337;SDS011;72379;50.880;4.350;2024-03-23T04:05:56;26.90;;;10.30;;
21337;SDS011;72379;50.880;4.350;2024-03-23T04:08:22;29.63;;;9.70;;
21337;SDS011;72379;50.880;4.350;2024-03-23T04:10:48;24.00;;;9.50;;
21337;SDS011;72379;50.880;4.350;2024-03-23T04:13:14;24.73;;;8.47;;
21337;SDS011;72379;50.880;4.350;2024-03-23T04:15:40;25.70;;;8.50;;
21337;SDS011;72379;50.880;4.350;2024-03-23T04:18:06;26.57;;;8.50;;
21337;SDS011;72379;50.880;4.350;2024-03-23T04:20:33;22.40;;;8.90;;
21337;SDS011;72379;50.880;4.350;2024-03-23T04:22:59;20.40;;;7.77;;
21337;SDS011;72379;50.880;4.350;2024-03-23T04:25:25;18.57;;;7.70;;
21337;SDS011;72379;50.880;4.350;2024-03-23T04:27:51;23.40;;;8.73;;
21337;SDS011;72379;50.880;4.350;2024-03-23T04:30:17;23.60;;;8.33;;
21337;SDS011;72379;50.880;4.350;2024-03-23T04:32:44;20.57;;;7.63;;
21337;SDS011;72379;50.880;4.350;2024-03-23T04:35:10;19.03;;;7.33;;
21337;SDS011;72379;50.880;4.350;2024-03-23T04:37:39;18.73;;;7.40;;
21337;SDS011;72379;50.880;4.350;2024-03-23T04:40:08;23.57;;;7.53;;
21337;SDS011;72379;50.880;4.350;2024-03-23T04:42:34;14.90;;;6.87;;
21337;SDS011;72379;50.880;4.350;2024-03-23T04:44:59;17.13;;;7.17;;
21337;SDS011;72379;50.880;4.350;2024-03-23T04:47:25;18.83;;;7.03;;
21337;SDS011;72379;50.880;4.350;2024-03-23T04:49:52;15.63;;;6.33;;
21337;SDS011;72379;50.880;4.350;2024-03-23T04:52:17;19.57;;;7.37;;
21337;SDS011;72379;50.880;4.350;2024-03-23T04:54:43;15.07;;;6.57;;
21337;SDS011;72379;50.880;4.350;2024-03-23T04:57:10;20.07;;;7.50;;
21337;SDS011;72379;50.880;4.350;2024-03-23T04:59:36;17.30;;;7.00;;
21337;SDS011;72379;50.880;4.350;2024-03-23T05:02:02;18.37;;;7.00;;
21337;SDS011;72379;50.880;4.350;2024-03-23T05:04:28;18.07;;;7.60;;
21337;SDS011;72379;50.880;4.350;2024-03-23T05:06:54;18.50;;;6.93;;
21337;SDS011;72379;50.880;4.350;2024-03-23T05:09:20;18.70;;;7.23;;
21337;SDS011;72379;50.880;4.350;2024-03-23T05:11:46;17.83;;;6.63;;
21337;SDS011;72379;50.880;4.350;2024-03-23T05:14:13;21.97;;;6.80;;
21337;SDS011;72379;50.880;4.350;2024-03-23T05:16:39;19.73;;;7.27;;
21337;SDS011;72379;50.880;4.350;2024-03-23T05:19:05;25.87;;;7.67;;
21337;SDS011;72379;50.880;4.350;2024-03-23T05:21:31;23.40;;;6.87;;
21337;SDS011;72379;50.880;4.350;2024-03-23T05:23:57;18.83;;;6.87;;
21337;SDS011;72379;50.880;4.350;2024-03-23T05:26:23;18.23;;;6.90;;
21337;SDS011;72379;50.880;4.350;2024-03-23T05:28:49;18.67;;;8.13;;
21337;SDS011;72379;50.880;4.350;2024-03-23T05:33:51;15.47;;;7.40;;
21337;SDS011;72379;50.880;4.350;2024-03-23T05:36:17;16.43;;;7.00;;
21337;SDS011;72379;50.880;4.350;2024-03-23T05:38:43;20.20;;;7.03;;
21337;SDS011;72379;50.880;4.350;2024-03-23T05:41:09;18.67;;;7.00;;
21337;SDS011;72379;50.880;4.350;2024-03-23T05:43:35;20.23;;;7.07;;
21337;SDS011;72379;50.880;4.350;2024-03-23T05:46:01;17.93;;;6.50;;
21337;SDS011;72379;50.880;4.350;2024-03-23T05:48:28;14.87;;;6.33;;
21337;SDS011;72379;50.880;4.350;2024-03-23T05:50:55;16.87;;;6.87;;
21337;SDS011;72379;50.880;4.350;2024-03-23T05:53:22;21.47;;;6.20;;
21337;SDS011;72379;50.880;4.350;2024-03-23T05:55:48;13.83;;;6.00;;
21337;SDS011;72379;50.880;4.350;2024-03-23T05:58:14;13.20;;;5.47;;
21337;SDS011;72379;50.880;4.350;2024-03-23T06:00:42;17.23;;;5.03;;
21337;SDS011;72379;50.880;4.350;2024-03-23T06:03:08;19.77;;;5.57;;
21337;SDS011;72379;50.880;4.350;2024-03-23T06:05:35;17.60;;;5.20;;
21337;SDS011;72379;50.880;4.350;2024-03-23T06:08:01;18.20;;;5.30;;
21337;SDS011;72379;50.880;4.350;2024-03-23T06:10:27;12.17;;;4.70;;
21337;SDS011;72379;50.880;4.350;2024-03-23T06:12:53;20.60;;;4.23;;
21337;SDS011;72379;50.880;4.350;2024-03-23T06:15:19;18.27;;;3.83;;
21337;SDS011;72379;50.880;4.350;2024-03-23T06:17:45;13.23;;;3.77;;
21337;SDS011;72379;50.880;4.350;2024-03-23T06:20:12;15.30;;;3.90;;
21337;SDS011;72379;50.880;4.350;2024-03-23T06:22:38;17.43;;;4.47;;
21337;SDS011;72379;50.880;4.350;2024-03-23T06:25:04;18.10;;;4.77;;
21337;SDS011;72379;50.880;4.350;2024-03-23T06:27:30;17.93;;;3.80;;
21337;SDS011;72379;50.880;4.350;2024-03-23T06:29:57;18.30;;;3.80;;
21337;SDS011;72379;50.880;4.350;2024-03-23T06:32:27;15.90;;;3.63;;
21337;SDS011;72379;50.880;4.350;2024-03-23T06:34:54;17.77;;;3.13;;
21337;SDS011;72379;50.880;4.350;2024-03-23T06:37:20;13.40;;;3.50;;
21337;SDS011;72379;50.880;4.350;2024-03-23T06:39:46;24.93;;;3.53;;
21337;SDS011;72379;50.880;4.350;2024-03-23T06:42:12;9.47;;;2.57;;
21337;SDS011;72379;50.880;4.350;2024-03-23T06:44:38;15.43;;;3.30;;
21337;SDS011;72379;50.880;4.350;2024-03-23T06:47:05;14.97;;;3.03;;
21337;SDS011;72379;50.880;4.350;2024-03-23T06:49:31;16.63;;;3.07;;
21337;SDS011;72379;50.880;4.350;2024-03-23T06:51:57;10.57;;;2.97;;
21337;SDS011;72379;50.880;4.350;2024-03-23T06:54:24;10.03;;;2.70;;
21337;SDS011;72379;50.880;4.350;2024-03-23T06:56:50;17.07;;;3.20;;
21337;SDS011;72379;50.880;4.350;2024-03-23T06:59:16;16.73;;;2.80;;
21337;SDS011;72379;50.880;4.350;2024-03-23T07:01:42;16.03;;;2.77;;
21337;SDS011;72379;50.880;4.350;2024-03-23T07:04:08;7.67;;;2.37;;
21337;SDS011;72379;50.880;4.350;2024-03-23T07:06:41;13.57;;;3.73;;
21337;SDS011;72379;50.880;4.350;2024-03-23T07:09:08;6.63;;;2.60;;
21337;SDS011;72379;50.880;4.350;2024-03-23T07:11:36;10.57;;;2.80;;
21337;SDS011;72379;50.880;4.350;2024-03-23T07:14:02;14.80;;;3.40;;
21337;SDS011;72379;50.880;4.350;2024-03-23T07:16:28;13.90;;;3.60;;
21337;SDS011;72379;50.880;4.350;2024-03-23T07:18:55;12.57;;;2.67;;
21337;SDS011;72379;50.880;4.350;2024-03-23T07:21:21;11.97;;;2.70;;
21337;SDS011;72379;50.880;4.350;2024-03-23T07:23:51;7.03;;;2.47;;
21337;SDS011;72379;50.880;4.350;2024-03-23T07:26:17;11.03;;;2.87;;
21337;SDS011;72379;50.880;4.350;2024-03-23T07:28:56;7.40;;;3.07;;
21337;SDS011;72379;50.880;4.350;2024-03-23T07:31:22;7.53;;;2.80;;
21337;SDS011;72379;50.880;4.350;2024-03-23T07:33:49;12.13;;;2.83;;
21337;SDS011;72379;50.880;4.350;2024-03-23T07:36:14;10.83;;;3.60;;
21337;SDS011;72379;50.880;4.350;2024-03-23T07:38:46;11.93;;;3.37;;
21337;SDS011;72379;50.880;4.350;2024-03-23T07:41:14;19.60;;;4.13;;
21337;SDS011;72379;50.880;4.350;2024-03-23T07:43:43;9.00;;;3.23;;
21337;SDS011;72379;50.880;4.350;2024-03-23T07:46:09;10.87;;;3.30;;
21337;SDS011;72379;50.880;4.350;2024-03-23T07:48:35;10.30;;;3.40;;
21337;SDS011;72379;50.880;4.350;2024-03-23T07:53:31;21.57;;;3.73;;
21337;SDS011;72379;50.880;4.350;2024-03-23T07:55:58;16.50;;;3.40;;
21337;SDS011;72379;50.880;4.350;2024-03-23T07:58:25;17.27;;;3.20;;
21337;SDS011;72379;50.880;4.350;2024-03-23T08:00:52;16.83;;;3.67;;
21337;SDS011;72379;50.880;4.350;2024-03-23T08:03:19;12.70;;;3.47;;
21337;SDS011;72379;50.880;4.350;2024-03-23T08:05:45;15.30;;;3.10;;
21337;SDS011;72379;50.880;4.350;2024-03-23T08:08:12;11.53;;;3.37;;
21337;SDS011;72379;50.880;4.350;2024-03-23T08:10:49;18.77;;;3.37;;
21337;SDS011;72379;50.880;4.350;2024-03-23T08:13:15;17.87;;;2.70;;
21337;SDS011;72379;50.880;4.350;2024-03-23T08:15:42;10.13;;;2.73;;
21337;SDS011;72379;50.880;4.350;2024-03-23T08:18:07;17.77;;;3.27;;
21337;SDS011;72379;50.880;4.350;2024-03-23T08:20:33;12.30;;;3.47;;
21337;SDS011;72379;50.880;4.350;2024-03-23T08:22:59;14.90;;;2.97;;
21337;SDS011;72379;50.880;4.350;2024-03-23T08:25:25;10.73;;;3.27;;
21337;SDS011;72379;50.880;4.350;2024-03-23T08:27:52;16.80;;;3.27;;
21337;SDS011;72379;50.880;4.350;2024-03-23T08:30:18;13.67;;;3.57;;
21337;SDS011;72379;50.880;4.350;2024-03-23T08:32:44;10.87;;;2.83;;
21337;SDS011;72379;50.880;4.350;2024-03-23T08:35:11;10.80;;;3.43;;
21337;SDS011;72379;50.880;4.350;2024-03-23T08:37:37;10.57;;;2.33;;
21337;SDS011;72379;50.880;4.350;2024-03-23T08:40:03;9.20;;;2.70;;
21337;SDS011;72379;50.880;4.350;2024-03-23T08:42:30;17.47;;;2.83;;
21337;SDS011;72379;50.880;4.350;2024-03-23T08:44:56;19.47;;;3.10;;
21337;SDS011;72379;50.880;4.350;2024-03-23T08:47:22;8.07;;;2.97;;
21337;SDS011;72379;50.880;4.350;2024-03-23T08:49:48;11.97;;;2.90;;
21337;SDS011;72379;50.880;4.350;2024-03-23T08:52:14;10.87;;;2.53;;
21337;SDS011;72379;50.880;4.350;2024-03-23T08:54:40;9.53;;;2.50;;
21337;SDS011;72379;50.880;4.350;2024-03-23T08:57:07;11.90;;;2.30;;
21337;SDS011;72379;50.880;4.350;2024-03-23T08:59:33;12.50;;;2.30;;
21337;SDS011;72379;50.880;4.350;2024-03-23T09:01:58;7.27;;;2.17;;
21337;SDS011;72379;50.880;4.350;2024-03-23T09:04:24;18.13;;;3.20;;
21337;SDS011;72379;50.880;4.350;2024-03-23T09:06:50;12.57;;;2.27;;
21337;SDS011;72379;50.880;4.350;2024-03-23T09:09:17;12.93;;;3.13;;
21337;SDS011;72379;50.880;4.350;2024-03-23T09:11:43;6.00;;;1.80;;
21337;SDS011;72379;50.880;4.350;2024-03-23T09:14:08;7.57;;;2.20;;
21337;SDS011;72379;50.880;4.350;2024-03-23T09:16:34;6.47;;;2.83;;
21337;SDS011;72379;50.880;4.350;2024-03-23T09:19:00;10.30;;;2.97;;
21337;SDS011;72379;50.880;4.350;2024-03-23T09:21:27;8.97;;;2.53;;
21337;SDS011;72379;50.880;4.350;2024-03-23T09:23:52;6.70;;;2.03;;
21337;SDS011;72379;50.880;4.350;2024-03-23T09:26:18;9.70;;;2.70;;
21337;SDS011;72379;50.880;4.350;2024-03-23T09:28:44;13.60;;;2.80;;
21337;SDS011;72379;50.880;4.350;2024-03-23T09:31:10;8.63;;;2.37;;
21337;SDS011;72379;50.880;4.350;2024-03-23T09:33:39;10.33;;;2.87;;
21337;SDS011;72379;50.880;4.350;2024-03-23T09:36:06;5.37;;;2.80;;
21337;SDS011;72379;50.880;4.350;2024-03-23T09:38:32;13.40;;;2.77;;
21337;SDS011;72379;50.880;4.350;2024-03-23T09:40:58;5.57;;;2.43;;
21337;SDS011;72379;50.880;4.350;2024-03-23T09:43:24;7.60;;;3.33;;
21337;SDS011;72379;50.880;4.350;2024-03-23T09:45:52;10.63;;;4.00;;
21337;SDS011;72379;50.880;4.350;2024-03-23T09:48:18;8.33;;;3.50;;
21337;SDS011;72379;50.880;4.350;2024-03-23T09:50:45;15.00;;;3.43;;
21337;SDS011;72379;50.880;4.350;2024-03-23T09:53:14;8.83;;;3.90;;
21337;SDS011;72379;50.880;4.350;2024-03-23T09:55:40;12.03;;;3.27;;
21337;SDS011;72379;50.880;4.350;2024-03-23T09:58:06;9.80;;;4.70;;
21337;SDS011;72379;50.880;4.350;2024-03-23T10:00:33;7.50;;;3.27;;
21337;SDS011;72379;50.880;4.350;2024-03-23T10:03:00;12.93;;;4.47;;
21337;SDS011;72379;50.880;4.350;2024-03-23T10:05:29;13.80;;;3.40;;
21337;SDS011;72379;50.880;4.350;2024-03-23T10:10:43;6.20;;;3.00;;
21337;SDS011;72379;50.880;4.350;2024-03-23T10:13:25;5.70;;;2.43;;
21337;SDS011;72379;50.880;4.350;2024-03-23T10:15:57;13.33;;;4.00;;
21337;SDS011;72379;50.880;4.350;2024-03-23T10:18:24;9.87;;;2.50;;
21337;SDS011;72379;50.880;4.350;2024-03-23T10:20:52;8.70;;;2.77;;
21337;SDS011;72379;50.880;4.350;2024-03-23T10:23:35;6.03;;;2.83;;
21337;SDS011;72379;50.880;4.350;2024-03-23T10:26:20;8.80;;;2.20;;
21337;SDS011;72379;50.880;4.350;2024-03-23T10:31:20;10.27;;;3.17;;
21337;SDS011;72379;50.880;4.350;2024-03-23T10:33:49;10.00;;;3.10;;
21337;SDS011;72379;50.880;4.350;2024-03-23T10:36:17;14.80;;;2.87;;
21337;SDS011;72379;50.880;4.350;2024-03-23T10:38:45;2.87;;;1.53;;
21337;SDS011;72379;50.880;4.350;2024-03-23T10:41:12;5.43;;;1.90;;
21337;SDS011;72379;50.880;4.350;2024-03-23T10:43:38;9.67;;;2.27;;
21337;SDS011;72379;50.880;4.350;2024-03-23T10:46:04;7.93;;;2.30;;
21337;SDS011;72379;50.880;4.350;2024-03-23T10:48:31;4.23;;;1.60;;
21337;SDS011;72379;50.880;4.350;2024-03-23T10:50:57;8.87;;;2.30;;
21337;SDS011;72379;50.880;4.350;2024-03-23T10:53:25;3.93;;;1.80;;
21337;SDS011;72379;50.880;4.350;2024-03-23T10:55:53;9.67;;;2.00;;
21337;SDS011;72379;50.880;4.350;2024-03-23T10:58:27;6.33;;;1.93;;
21337;SDS011;72379;50.880;4.350;2024-03-23T11:00:58;6.67;;;1.50;;
21337;SDS011;72379;50.880;4.350;2024-03-23T11:06:01;8.33;;;1.90;;
21337;SDS011;72379;50.880;4.350;2024-03-23T11:08:31;8.07;;;1.40;;
21337;SDS011;72379;50.880;4.350;2024-03-23T11:13:48;5.80;;;1.30;;
21337;SDS011;72379;50.880;4.350;2024-03-23T11:16:24;4.70;;;1.60;;
21337;SDS011;72379;50.880;4.350;2024-03-23T11:22:05;2.00;;;0.93;;
21337;SDS011;72379;50.880;4.350;2024-03-23T11:24:31;9.00;;;1.20;;
21337;SDS011;72379;50.880;4.350;2024-03-23T11:26:57;9.03;;;1.83;;
21337;SDS011;72379;50.880;4.350;2024-03-23T11:29:26;6.60;;;1.80;;
21337;SDS011;72379;50.880;4.350;2024-03-23T11:31:52;7.07;;;1.30;;
21337;SDS011;72379;50.880;4.350;2024-03-23T11:34:21;5.60;;;1.37;;
21337;SDS011;72379;50.880;4.350;2024-03-23T11:36:47;8.23;;;1.53;;
21337;SDS011;72379;50.880;4.350;2024-03-23T11:39:15;4.47;;;1.33;;
21337;SDS011;72379;50.880;4.350;2024-03-23T11:41:46;5.43;;;1.27;;
21337;SDS011;72379;50.880;4.350;2024-03-23T11:46:48;6.37;;;1.80;;
21337;SDS011;72379;50.880;4.350;2024-03-23T11:51:48;5.03;;;1.40;;
21337;SDS011;72379;50.880;4.350;2024-03-23T11:54:14;4.90;;;1.17;;
21337;SDS011;72379;50.880;4.350;2024-03-23T11:56:40;3.50;;;1.07;;
21337;SDS011;72379;50.880;4.350;2024-03-23T12:02:07;3.87;;;1.10;;
21337;SDS011;72379;50.880;4.350;2024-03-23T12:04:35;8.00;;;1.47;;
21337;SDS011;72379;50.880;4.350;2024-03-23T12:09:43;6.30;;;1.80;;
21337;SDS011;72379;50.880;4.350;2024-03-23T12:12:16;7.13;;;1.37;;
21337;SDS011;72379;50.880;4.350;2024-03-23T12:14:43;2.47;;;1.00;;
21337;SDS011;72379;50.880;4.350;2024-03-23T12:17:26;2.57;;;1.40;;
21337;SDS011;72379;50.880;4.350;2024-03-23T12:19:52;1.60;;;0.83;;
21337;SDS011;72379;50.880;4.350;2024-03-23T12:22:21;4.07;;;0.87;;
21337;SDS011;72379;50.880;4.350;2024-03-23T12:24:48;4.53;;;1.00;;
21337;SDS011;72379;50.880;4.350;2024-03-23T12:27:13;2.77;;;0.70;;
21337;SDS011;72379;50.880;4.350;2024-03-23T12:29:40;5.17;;;0.87;;
21337;SDS011;72379;50.880;4.350;2024-03-23T12:34:39;4.20;;;0.87;;
21337;SDS011;72379;50.880;4.350;2024-03-23T12:37:06;5.27;;;1.30;;
21337;SDS011;72379;50.880;4.350;2024-03-23T12:39:34;7.13;;;1.20;;
21337;SDS011;72379;50.880;4.350;2024-03-23T12:42:02;1.43;;;1.00;;
21337;SDS011;72379;50.880;4.350;2024-03-23T12:44:28;6.73;;;1.40;;
21337;SDS011;72379;50.880;4.350;2024-03-23T12:46:54;10.13;;;1.53;;
21337;SDS011;72379;50.880;4.350;2024-03-23T12:49:22;4.70;;;1.67;;
21337;SDS011;72379;50.880;4.350;2024-03-23T12:51:55;4.00;;;1.00;;
21337;SDS011;72379;50.880;4.350;2024-03-23T12:54:22;3.30;;;0.90;;
21337;SDS011;72379;50.880;4.350;2024-03-23T12:56:47;6.57;;;1.80;;
21337;SDS011;72379;50.880;4.350;2024-03-23T12:59:14;6.13;;;1.40;;
21337;SDS011;72379;50.880;4.350;2024-03-23T13:01:41;6.73;;;1.17;;
21337;SDS011;72379;50.880;4.350;2024-03-23T13:04:08;8.20;;;1.60;;
21337;SDS011;72379;50.880;4.350;2024-03-23T13:06:34;6.53;;;2.10;;
21337;SDS011;72379;50.880;4.350;2024-03-23T13:09:01;8.13;;;1.87;;
21337;SDS011;72379;50.880;4.350;2024-03-23T13:11:28;2.23;;;1.00;;
21337;SDS011;72379;50.880;4.350;2024-03-23T13:13:54;3.37;;;1.03;;
21337;SDS011;72379;50.880;4.350;2024-03-23T13:16:20;5.90;;;1.20;;
21337;SDS011;72379;50.880;4.350;2024-03-23T13:18:46;6.77;;;1.47;;
21337;SDS011;72379;50.880;4.350;2024-03-23T13:21:12;6.77;;;0.97;;
21337;SDS011;72379;50.880;4.350;2024-03-23T13:23:38;4.93;;;1.23;;
21337;SDS011;72379;50.880;4.350;2024-03-23T13:26:07;3.73;;;1.07;;
21337;SDS011;72379;50.880;4.350;2024-03-23T13:28:34;6.53;;;1.17;;
21337;SDS011;72379;50.880;4.350;2024-03-23T13:31:01;2.33;;;0.80;;
21337;SDS011;72379;50.880;4.350;2024-03-23T13:33:29;4.00;;;1.30;;
21337;SDS011;72379;50.880;4.350;2024-03-23T13:35:57;3.73;;;1.07;;
21337;SDS011;72379;50.880;4.350;2024-03-23T13:38:23;3.67;;;1.27;;
21337;SDS011;72379;50.880;4.350;2024-03-23T13:40:53;4.10;;;1.17;;
21337;SDS011;72379;50.880;4.350;2024-03-23T13:43:20;9.67;;;1.53;;
21337;SDS011;72379;50.880;4.350;2024-03-23T13:45:50;7.73;;;1.63;;
21337;SDS011;72379;50.880;4.350;2024-03-23T13:48:24;7.27;;;1.40;;
21337;SDS011;72379;50.880;4.350;2024-03-23T13:50:59;6.37;;;1.27;;
21337;SDS011;72379;50.880;4.350;2024-03-23T13:53:27;3.13;;;1.30;;
21337;SDS011;72379;50.880;4.350;2024-03-23T13:55:52;9.20;;;1.50;;
21337;SDS011;72379;50.880;4.350;2024-03-23T13:58:19;7.20;;;1.90;;
21337;SDS011;72379;50.880;4.350;2024-03-23T14:00:44;6.97;;;1.80;;
21337;SDS011;72379;50.880;4.350;2024-03-23T14:03:14;5.20;;;1.63;;
21337;SDS011;72379;50.880;4.350;2024-03-23T14:05:40;4.77;;;1.50;;
21337;SDS011;72379;50.880;4.350;2024-03-23T14:08:09;9.77;;;1.63;;
21337;SDS011;72379;50.880;4.350;2024-03-23T14:10:35;7.50;;;2.00;;
21337;SDS011;72379;50.880;4.350;2024-03-23T14:13:02;4.77;;;2.20;;
21337;SDS011;72379;50.880;4.350;2024-03-23T14:15:30;7.13;;;1.90;;
21337;SDS011;72379;50.880;4.350;2024-03-23T14:17:56;7.00;;;1.80;;
21337;SDS011;72379;50.880;4.350;2024-03-23T14:20:22;5.83;;;1.50;;
21337;SDS011;72379;50.880;4.350;2024-03-23T14:22:48;13.03;;;2.73;;
21337;SDS011;72379;50.880;4.350;2024-03-23T14:25:15;4.80;;;1.33;;
21337;SDS011;72379;50.880;4.350;2024-03-23T14:27:41;6.13;;;1.33;;
21337;SDS011;72379;50.880;4.350;2024-03-23T14:30:07;5.77;;;1.97;;
21337;SDS011;72379;50.880;4.350;2024-03-23T14:32:33;5.60;;;1.80;;
21337;SDS011;72379;50.880;4.350;2024-03-23T14:35:02;7.10;;;1.80;;
21337;SDS011;72379;50.880;4.350;2024-03-23T14:37:29;7.50;;;1.87;;
21337;SDS011;72379;50.880;4.350;2024-03-23T14:39:56;10.00;;;2.23;;
21337;SDS011;72379;50.880;4.350;2024-03-23T14:42:22;4.60;;;1.73;;
21337;SDS011;72379;50.880;4.350;2024-03-23T14:44:49;6.33;;;1.13;;
21337;SDS011;72379;50.880;4.350;2024-03-23T14:47:18;6.20;;;1.60;;
21337;SDS011;72379;50.880;4.350;2024-03-23T14:49:44;8.03;;;2.00;;
21337;SDS011;72379;50.880;4.350;2024-03-23T14:52:15;6.23;;;1.50;;
21337;SDS011;72379;50.880;4.350;2024-03-23T14:54:41;4.03;;;1.67;;
21337;SDS011;72379;50.880;4.350;2024-03-23T14:57:08;6.43;;;1.20;;
21337;SDS011;72379;50.880;4.350;2024-03-23T14:59:35;4.07;;;1.90;;
21337;SDS011;72379;50.880;4.350;2024-03-23T15:02:03;5.03;;;1.47;;
21337;SDS011;72379;50.880;4.350;2024-03-23T15:04:29;5.40;;;1.80;;
21337;SDS011;72379;50.880;4.350;2024-03-23T15:06:55;8.47;;;1.90;;
21337;SDS011;72379;50.880;4.350;2024-03-23T15:09:21;8.10;;;1.50;;
21337;SDS011;72379;50.880;4.350;2024-03-23T15:11:47;7.80;;;1.70;;
21337;SDS011;72379;50.880;4.350;2024-03-23T15:14:13;6.20;;;1.50;;
21337;SDS011;72379;50.880;4.350;2024-03-23T15:16:39;3.33;;;1.00;;
21337;SDS011;72379;50.880;4.350;2024-03-23T15:19:11;4.57;;;1.50;;
21337;SDS011;72379;50.880;4.350;2024-03-23T15:21:36;4.60;;;1.63;;
21337;SDS011;72379;50.880;4.350;2024-03-23T15:24:02;6.27;;;1.80;;
21337;SDS011;72379;50.880;4.350;2024-03-23T15:26:30;11.50;;;2.00;;
21337;SDS011;72379;50.880;4.350;2024-03-23T15:28:56;9.40;;;2.00;;
21337;SDS011;72379;50.880;4.350;2024-03-23T15:31:22;5.77;;;1.90;;
21337;SDS011;72379;50.880;4.350;2024-03-23T15:33:47;8.50;;;2.03;;
21337;SDS011;72379;50.880;4.350;2024-03-23T15:36:13;8.10;;;2.33;;
21337;SDS011;72379;50.880;4.350;2024-03-23T15:38:39;5.37;;;1.80;;
21337;SDS011;72379;50.880;4.350;2024-03-23T15:41:05;6.93;;;1.67;;
21337;SDS011;72379;50.880;4.350;2024-03-23T15:43:31;6.60;;;1.70;;
21337;SDS011;72379;50.880;4.350;2024-03-23T15:46:00;4.83;;;1.80;;
21337;SDS011;72379;50.880;4.350;2024-03-23T15:48:28;5.60;;;1.80;;
21337;SDS011;72379;50.880;4.350;2024-03-23T15:50:58;10.20;;;1.80;;
21337;SDS011;72379;50.880;4.350;2024-03-23T15:53:25;8.50;;;1.60;;
21337;SDS011;72379;50.880;4.350;2024-03-23T15:56:01;5.23;;;1.60;;
21337;SDS011;72379;50.880;4.350;2024-03-23T15:58:30;12.70;;;2.03;;
21337;SDS011;72379;50.880;4.350;2024-03-23T16:00:57;5.93;;;2.00;;
21337;SDS011;72379;50.880;4.350;2024-03-23T16:03:24;8.60;;;1.47;;
21337;SDS011;72379;50.880;4.350;2024-03-23T16:05:52;11.97;;;2.00;;